createdAt,value
2017-10-21T07:36:41.668Z,3.80
2017-10-21T07:37:43.532Z,4.00
2017-10-21T07:38:46.172Z,4.03
2017-10-21T07:39:48.048Z,4.47
2017-10-21T07:40:50.697Z,3.80
2017-10-21T07:41:52.851Z,3.87
2017-10-21T07:42:54.745Z,4.10
2017-10-21T07:43:57.552Z,3.60
2017-10-21T07:44:59.419Z,3.90
2017-10-21T07:46:01.293Z,3.97
2017-10-21T07:47:03.203Z,4.60
2017-10-21T07:48:05.075Z,4.40
2017-10-21T07:49:06.948Z,4.00
2017-10-21T07:50:08.821Z,3.57
2017-10-21T07:51:10.692Z,3.80
2017-10-21T07:52:12.584Z,3.83
2017-10-21T07:53:14.461Z,3.40
2017-10-21T07:54:17.110Z,4.47
2017-10-21T07:55:18.989Z,4.23
2017-10-21T07:56:21.653Z,4.37
2017-10-21T07:57:24.324Z,4.10
2017-10-21T07:58:26.975Z,3.87
2017-10-21T07:59:28.849Z,4.50
2017-10-21T08:00:30.723Z,3.57
2017-10-21T08:01:32.605Z,4.07
2017-10-21T08:02:34.512Z,3.70
2017-10-21T08:03:36.664Z,4.47
2017-10-21T08:04:38.541Z,3.67
2017-10-21T08:05:40.416Z,3.90
2017-10-21T08:06:42.313Z,4.20
2017-10-21T08:07:44.221Z,3.80
2017-10-21T08:08:46.092Z,3.90
2017-10-21T08:09:48.736Z,3.50
2017-10-21T08:10:50.604Z,3.60
2017-10-21T08:11:53.247Z,3.97
2017-10-21T08:12:55.160Z,4.13
2017-10-21T08:13:57.040Z,3.60
2017-10-21T08:14:58.929Z,3.57
2017-10-21T08:16:00.795Z,3.83
2017-10-21T08:17:03.432Z,3.63
2017-10-21T08:18:05.336Z,3.77
2017-10-21T08:19:07.217Z,4.47
2017-10-21T08:20:09.084Z,4.40
2017-10-21T08:21:11.184Z,4.30
2017-10-21T08:22:13.080Z,4.93
2017-10-21T08:23:15.014Z,4.37
2017-10-21T08:24:16.912Z,4.40
2017-10-21T08:25:19.541Z,3.60
2017-10-21T08:26:21.415Z,4.03
2017-10-21T08:27:23.281Z,4.40
2017-10-21T08:28:25.931Z,3.73
2017-10-21T08:29:27.801Z,4.67
2017-10-21T08:30:30.452Z,4.27
2017-10-21T08:31:32.320Z,4.13
2017-10-21T08:32:34.960Z,4.03
2017-10-21T08:33:36.848Z,4.20
2017-10-21T08:34:39.487Z,4.73
2017-10-21T08:35:41.352Z,4.83
2017-10-21T08:36:43.992Z,4.30
2017-10-21T08:37:45.874Z,4.47
2017-10-21T08:38:48.544Z,4.03
2017-10-21T08:39:51.195Z,4.82
2017-10-21T08:40:53.078Z,4.53
2017-10-21T08:41:54.956Z,3.90
2017-10-21T08:42:56.824Z,4.17
2017-10-21T08:43:58.721Z,4.03
2017-10-21T08:45:01.373Z,3.83
2017-10-21T08:46:03.246Z,3.80
2017-10-21T08:47:05.889Z,4.07
2017-10-21T08:48:07.762Z,4.03
2017-10-21T08:49:10.436Z,3.80
2017-10-21T08:50:12.328Z,4.70
2017-10-21T08:51:14.204Z,3.70
2017-10-21T08:52:16.079Z,3.60
2017-10-21T08:53:18.716Z,3.47
2017-10-21T08:54:20.633Z,4.67
2017-10-21T08:55:22.520Z,4.30
2017-10-21T08:56:24.396Z,4.10
2017-10-21T08:57:27.051Z,4.33
2017-10-21T08:58:28.920Z,4.27
2017-10-21T08:59:31.916Z,5.90
2017-10-21T09:00:33.802Z,6.07
2017-10-21T09:01:35.669Z,4.93
2017-10-21T09:02:37.543Z,4.83
2017-10-21T09:03:40.222Z,4.33
2017-10-21T09:04:42.889Z,4.43
2017-10-21T09:05:44.766Z,3.97
2017-10-21T09:06:46.637Z,3.97
2017-10-21T09:07:48.512Z,4.20
2017-10-21T09:08:50.394Z,4.50
2017-10-21T09:09:52.305Z,4.40
2017-10-21T09:10:54.184Z,4.20
2017-10-21T09:11:56.830Z,4.70
2017-10-21T09:12:58.705Z,4.80
2017-10-21T09:14:01.341Z,5.17
2017-10-21T09:15:03.245Z,4.50
2017-10-21T09:16:05.119Z,5.00
2017-10-21T09:17:06.989Z,5.00
2017-10-21T09:18:08.891Z,3.90
2017-10-21T09:19:10.788Z,5.68
2017-10-21T09:20:12.696Z,4.93
2017-10-21T09:21:14.583Z,4.33
2017-10-21T09:22:16.448Z,3.97
2017-10-21T09:23:18.333Z,4.30
2017-10-21T09:24:21.614Z,4.70
2017-10-21T09:25:23.634Z,4.60
2017-10-21T09:26:25.518Z,4.22
2017-10-21T09:27:28.159Z,4.40
2017-10-21T09:28:30.028Z,4.43
2017-10-21T09:29:32.668Z,4.43
2017-10-21T09:30:34.572Z,4.27
2017-10-21T09:31:36.455Z,4.60
2017-10-21T09:32:38.332Z,4.43
2017-10-21T09:33:40.201Z,4.53
2017-10-21T09:34:42.836Z,4.47
2017-10-21T09:35:44.722Z,4.17
2017-10-21T09:36:47.364Z,4.80
2017-10-21T09:37:49.237Z,4.30
2017-10-21T09:38:51.880Z,4.40
2017-10-21T09:39:53.748Z,3.97
2017-10-21T09:40:56.415Z,4.50
2017-10-21T09:41:59.061Z,4.17
2017-10-21T09:43:00.943Z,4.63
2017-10-21T09:44:03.592Z,5.55
2017-10-21T09:45:05.469Z,9.00
2017-10-21T09:46:08.144Z,6.90
2017-10-21T09:47:10.030Z,13.60
2017-10-21T09:48:11.908Z,8.13
2017-10-21T09:49:13.785Z,5.95
2017-10-21T09:50:16.424Z,5.50
2017-10-21T09:51:18.317Z,5.30
2017-10-21T09:52:20.196Z,5.20
2017-10-21T09:53:22.080Z,4.67
2017-10-21T09:54:23.952Z,4.30
2017-10-21T09:55:26.587Z,4.63
2017-10-21T09:56:28.488Z,4.30
2017-10-21T09:57:30.369Z,4.43
2017-10-21T09:58:32.240Z,4.40
2017-10-21T09:59:34.118Z,4.73
2017-10-21T10:00:36.773Z,4.20
2017-10-21T10:01:38.687Z,4.73
2017-10-21T10:02:40.556Z,4.77
2017-10-21T10:03:42.432Z,4.20
2017-10-21T10:04:44.317Z,4.20
2017-10-21T10:05:46.189Z,4.93
2017-10-21T10:06:48.093Z,3.63
2017-10-21T10:07:50.741Z,4.70
2017-10-21T10:08:52.616Z,4.72
2017-10-21T10:09:55.262Z,4.63
2017-10-21T10:10:57.140Z,3.80
2017-10-21T10:11:59.809Z,4.20
2017-10-21T10:13:02.448Z,4.00
2017-10-21T10:14:04.324Z,4.57
2017-10-21T10:15:06.969Z,4.47
2017-10-21T10:16:08.843Z,4.57
2017-10-21T10:17:11.589Z,4.43
2017-10-21T10:18:13.468Z,4.00
2017-10-21T10:19:16.109Z,4.00
2017-10-21T10:20:17.994Z,4.07
2017-10-21T10:21:20.629Z,3.90
2017-10-21T10:22:22.528Z,4.70
2017-10-21T10:23:24.400Z,4.20
2017-10-21T10:24:26.272Z,5.47
2017-10-21T10:25:28.148Z,5.53
2017-10-21T10:26:30.784Z,5.57
2017-10-21T10:27:32.720Z,4.63
2017-10-21T10:28:34.802Z,4.37
2017-10-21T10:29:36.677Z,4.63
2017-10-21T10:30:39.312Z,4.37
2017-10-21T10:31:41.192Z,3.87
2017-10-21T10:32:43.840Z,4.12
2017-10-21T10:33:45.713Z,3.93
2017-10-21T10:34:48.365Z,4.40
2017-10-21T10:35:50.284Z,3.97
2017-10-21T10:36:52.165Z,3.80
2017-10-21T10:37:54.076Z,3.63
2017-10-21T10:38:55.950Z,4.23
2017-10-21T10:39:57.821Z,4.73
2017-10-21T10:40:59.684Z,4.07
2017-10-21T10:42:02.327Z,3.90
2017-10-21T10:43:04.547Z,3.83
2017-10-21T10:44:06.412Z,3.73
2017-10-21T10:45:08.295Z,3.50
2017-10-21T10:46:10.167Z,3.40
2017-10-21T10:47:12.805Z,3.53
2017-10-21T10:48:14.715Z,4.07
2017-10-21T10:49:16.593Z,4.10
2017-10-21T10:50:18.477Z,4.63
2017-10-21T10:51:21.119Z,4.40
2017-10-21T10:52:22.993Z,4.67
2017-10-21T10:53:24.882Z,4.37
2017-10-21T10:54:26.756Z,5.13
2017-10-21T10:55:28.624Z,4.80
2017-10-21T10:56:30.512Z,4.20
2017-10-21T10:57:33.155Z,5.32
2017-10-21T10:58:35.036Z,4.10
2017-10-21T10:59:36.900Z,3.70
2017-10-21T11:00:38.776Z,4.00
2017-10-21T11:01:40.656Z,4.57
2017-10-21T11:02:42.539Z,5.12
2017-10-21T11:03:44.465Z,5.27
2017-10-21T11:04:46.333Z,4.87
2017-10-21T11:05:48.981Z,4.78
2017-10-21T11:06:50.859Z,3.60
2017-10-21T11:07:52.731Z,3.40
2017-10-21T11:08:54.639Z,3.83
2017-10-21T11:09:57.277Z,3.87
2017-10-21T11:10:59.149Z,3.83
2017-10-21T11:12:01.020Z,4.10
2017-10-21T11:13:03.673Z,4.60
2017-10-21T11:14:05.547Z,4.93
2017-10-21T11:15:07.424Z,4.50
2017-10-21T11:16:09.295Z,3.77
2017-10-21T11:17:11.188Z,7.53
2017-10-21T11:18:13.825Z,5.60
2017-10-21T11:19:15.744Z,5.73
2017-10-21T11:20:17.609Z,4.30
2017-10-21T11:21:19.485Z,4.07
2017-10-21T11:22:21.356Z,3.97
2017-10-21T11:23:23.997Z,3.53
2017-10-21T11:24:25.960Z,3.27
2017-10-21T11:25:27.839Z,3.03
2017-10-21T11:26:29.703Z,3.45
2017-10-21T11:27:31.593Z,3.03
2017-10-21T11:28:33.470Z,3.00
2017-10-21T11:29:36.145Z,3.40
2017-10-21T11:30:38.773Z,3.07
2017-10-21T11:31:40.652Z,3.87
2017-10-21T11:32:42.533Z,3.23
2017-10-21T11:33:44.410Z,2.60
2017-10-21T11:34:46.563Z,2.80
2017-10-21T11:35:48.461Z,3.17
2017-10-21T11:36:50.333Z,2.40
2017-10-21T11:37:52.968Z,2.20
2017-10-21T11:38:54.844Z,2.37
2017-10-21T11:39:57.515Z,2.30
2017-10-21T11:41:00.151Z,2.00
2017-10-21T11:42:02.044Z,2.10
2017-10-21T11:43:03.917Z,2.37
2017-10-21T11:44:05.784Z,2.00
2017-10-21T11:45:07.681Z,1.77
2017-10-21T11:46:10.326Z,1.93
2017-10-21T11:47:12.208Z,1.93
2017-10-21T11:48:14.852Z,2.20
2017-10-21T11:49:16.733Z,2.20
2017-10-21T11:50:18.615Z,1.80
2017-10-21T11:51:20.490Z,1.97
2017-10-21T11:52:22.385Z,2.10
2017-10-21T11:53:24.251Z,1.80
2017-10-21T11:54:26.125Z,1.90
2017-10-21T11:55:28.040Z,2.57
2017-10-21T11:56:29.908Z,2.10
2017-10-21T11:57:31.787Z,3.57
2017-10-21T11:58:33.664Z,2.00
2017-10-21T11:59:36.317Z,2.00
2017-10-21T12:00:38.217Z,1.90
2017-10-21T12:01:40.092Z,2.10
2017-10-21T12:02:41.968Z,2.10
2017-10-21T12:03:43.845Z,1.90
2017-10-21T12:04:46.477Z,1.60
2017-10-21T12:05:48.388Z,1.70
2017-10-21T12:06:50.261Z,1.90
2017-10-21T12:07:52.136Z,1.50
2017-10-21T12:08:54.016Z,1.70
2017-10-21T12:09:56.649Z,1.77
2017-10-21T12:10:59.681Z,1.47
2017-10-21T12:12:01.548Z,1.80
2017-10-21T12:13:03.420Z,1.30
2017-10-21T12:14:05.536Z,1.37
2017-10-21T12:15:07.407Z,1.90
2017-10-21T12:16:09.321Z,1.70
2017-10-21T12:17:11.948Z,1.53
2017-10-21T12:18:13.822Z,1.73
2017-10-21T12:19:15.701Z,1.70
2017-10-21T12:20:18.328Z,1.80
2017-10-21T12:21:20.257Z,2.03
2017-10-21T12:22:22.129Z,2.30
2017-10-21T12:23:24.005Z,2.00
2017-10-21T12:24:26.636Z,2.40
2017-10-21T12:25:28.510Z,1.80
2017-10-21T12:26:31.129Z,2.10
2017-10-21T12:27:33.000Z,1.77
2017-10-21T12:28:34.873Z,1.83
2017-10-21T12:29:36.757Z,2.10
2017-10-21T12:30:38.625Z,1.87
2017-10-21T12:31:40.529Z,2.00
2017-10-21T12:32:42.412Z,1.77
2017-10-21T12:33:44.297Z,1.90
2017-10-21T12:34:46.168Z,2.00
2017-10-21T12:35:48.067Z,1.70
2017-10-21T12:36:49.965Z,1.53
2017-10-21T12:37:51.844Z,2.10
2017-10-21T12:38:54.488Z,2.20
2017-10-21T12:39:56.356Z,2.80
2017-10-21T12:40:58.235Z,1.63
2017-10-21T12:42:00.125Z,1.97
2017-10-21T12:43:02.020Z,1.70
2017-10-21T12:44:04.656Z,1.60
2017-10-21T12:45:06.627Z,1.40
2017-10-21T12:46:08.493Z,1.70
2017-10-21T12:47:11.156Z,1.50
2017-10-21T12:48:13.811Z,1.63
2017-10-21T12:49:15.697Z,1.70
2017-10-21T12:50:17.568Z,1.67
2017-10-21T12:51:19.453Z,2.10
2017-10-21T12:52:21.343Z,1.70
2017-10-21T12:53:23.216Z,1.90
2017-10-21T12:54:25.100Z,2.37
2017-10-21T12:55:26.972Z,1.80
2017-10-21T12:56:29.613Z,1.60
2017-10-21T12:57:31.500Z,1.90
2017-10-21T12:58:34.144Z,1.70
2017-10-21T12:59:36.023Z,1.70
2017-10-21T13:00:38.660Z,1.70
2017-10-21T13:01:40.600Z,1.80
2017-10-21T13:02:42.492Z,2.03
2017-10-21T13:03:45.131Z,1.53
2017-10-21T13:04:47.004Z,1.70
2017-10-21T13:05:49.656Z,1.70
2017-10-21T13:06:51.528Z,2.40
2017-10-21T13:07:54.201Z,4.47
2017-10-21T13:08:56.840Z,5.00
2017-10-21T13:09:58.712Z,2.60
2017-10-21T13:11:01.354Z,2.07
2017-10-21T13:12:03.232Z,2.43
2017-10-21T13:13:05.981Z,2.23
2017-10-21T13:14:07.856Z,2.03
2017-10-21T13:15:10.497Z,1.90
2017-10-21T13:16:12.372Z,2.10
2017-10-21T13:17:15.005Z,2.08
2017-10-21T13:18:16.912Z,1.70
2017-10-21T13:19:18.791Z,2.00
2017-10-21T13:20:20.676Z,1.87
2017-10-21T13:21:22.565Z,2.12
2017-10-21T13:22:24.445Z,1.87
2017-10-21T13:23:26.360Z,2.23
2017-10-21T13:24:28.232Z,2.13
2017-10-21T13:25:30.112Z,2.20
2017-10-21T13:26:31.988Z,1.90
2017-10-21T13:27:34.635Z,1.67
2017-10-21T13:28:36.526Z,2.17
2017-10-21T13:29:38.396Z,2.17
2017-10-21T13:30:40.269Z,2.10
2017-10-21T13:31:42.141Z,1.73
2017-10-21T13:32:44.016Z,2.13
2017-10-21T13:33:46.680Z,1.90
2017-10-21T13:34:49.333Z,1.77
2017-10-21T13:35:51.200Z,2.00
2017-10-21T13:36:53.840Z,2.47
2017-10-21T13:37:55.716Z,2.27
2017-10-21T13:38:58.384Z,2.20
2017-10-21T13:40:00.247Z,2.20
2017-10-21T13:41:02.886Z,2.27
2017-10-21T13:42:04.760Z,2.37
2017-10-21T13:43:07.405Z,2.35
2017-10-21T13:44:09.289Z,1.80
2017-10-21T13:45:11.180Z,2.20
2017-10-21T13:46:13.057Z,2.07
2017-10-21T13:47:14.932Z,2.00
2017-10-21T13:48:17.588Z,2.40
2017-10-21T13:49:19.485Z,2.40
2017-10-21T13:50:21.349Z,1.90
2017-10-21T13:51:23.235Z,1.80
2017-10-21T13:52:25.113Z,1.60
2017-10-21T13:53:26.993Z,2.47
2017-10-21T13:54:28.900Z,2.70
2017-10-21T13:55:31.538Z,2.70
2017-10-21T13:56:33.414Z,2.17
2017-10-21T13:57:36.044Z,2.40
2017-10-21T13:58:37.926Z,2.10
2017-10-21T13:59:39.835Z,2.93
2017-10-21T14:00:41.704Z,2.40
2017-10-21T14:01:43.584Z,2.37
2017-10-21T14:02:46.216Z,2.23
2017-10-21T14:03:48.088Z,2.60
2017-10-21T14:04:49.980Z,2.20
2017-10-21T14:05:51.856Z,2.87
2017-10-21T14:06:53.739Z,2.30
2017-10-21T14:07:55.613Z,2.53
2017-10-21T14:08:58.248Z,2.13
2017-10-21T14:10:00.177Z,2.30
2017-10-21T14:11:02.059Z,2.30
2017-10-21T14:12:03.927Z,2.10
2017-10-21T14:13:06.569Z,2.00
2017-10-21T14:14:08.460Z,2.30
2017-10-21T14:15:10.363Z,2.27
2017-10-21T14:16:12.241Z,2.23
2017-10-21T14:17:14.881Z,2.10
2017-10-21T14:18:16.771Z,1.83
2017-10-21T14:19:19.402Z,2.60
2017-10-21T14:20:21.288Z,2.30
2017-10-21T14:21:23.933Z,2.27
2017-10-21T14:22:25.825Z,2.00
2017-10-21T14:23:28.553Z,2.07
2017-10-21T14:24:30.430Z,1.80
2017-10-21T14:25:33.097Z,1.77
2017-10-21T14:26:35.743Z,1.97
2017-10-21T14:27:37.616Z,2.00
2017-10-21T14:28:40.256Z,1.87
2017-10-21T14:29:42.129Z,2.00
2017-10-21T14:30:44.796Z,1.80
2017-10-21T14:31:47.445Z,1.73
2017-10-21T14:32:49.315Z,2.00
2017-10-21T14:33:51.188Z,2.00
2017-10-21T14:34:53.064Z,1.80
2017-10-21T14:35:54.952Z,1.77
2017-10-21T14:36:56.824Z,3.60
2017-10-21T14:37:59.473Z,4.10
2017-10-21T14:39:01.340Z,3.07
2017-10-21T14:40:03.985Z,5.87
2017-10-21T14:41:05.884Z,4.40
2017-10-21T14:42:07.758Z,5.80
2017-10-21T14:43:09.641Z,4.00
2017-10-21T14:44:11.742Z,3.67
2017-10-21T14:45:13.612Z,3.10
2017-10-21T14:46:15.525Z,3.10
2017-10-21T14:47:18.168Z,3.17
2017-10-21T14:48:20.036Z,3.20
2017-10-21T14:49:22.671Z,2.80
2017-10-21T14:50:24.540Z,2.93
2017-10-21T14:51:26.456Z,2.20
2017-10-21T14:52:28.329Z,2.63
2017-10-21T14:53:30.213Z,2.63
2017-10-21T14:54:32.856Z,2.50
2017-10-21T14:55:34.733Z,2.73
2017-10-21T14:56:37.396Z,2.40
2017-10-21T14:57:40.044Z,2.10
2017-10-21T14:58:41.917Z,2.70
2017-10-21T14:59:44.560Z,2.40
2017-10-21T15:00:46.432Z,2.37
2017-10-21T15:01:49.495Z,2.20
2017-10-21T15:02:51.372Z,2.27
2017-10-21T15:03:54.004Z,2.40
2017-10-21T15:04:55.875Z,2.70
2017-10-21T15:05:58.516Z,2.50
2017-10-21T15:07:00.417Z,2.40
2017-10-21T15:08:02.284Z,2.67
2017-10-21T15:09:04.163Z,2.50
2017-10-21T15:10:06.044Z,2.43
2017-10-21T15:11:08.688Z,2.03
2017-10-21T15:12:10.596Z,2.13
2017-10-21T15:13:12.488Z,2.13
2017-10-21T15:14:14.360Z,2.33
2017-10-21T15:15:17.000Z,2.57
2017-10-21T15:16:18.871Z,2.57
2017-10-21T15:17:20.794Z,2.47
2017-10-21T15:18:22.668Z,2.70
2017-10-21T15:19:24.548Z,2.80
2017-10-21T15:20:27.198Z,3.27
2017-10-21T15:21:29.856Z,2.80
2017-10-21T15:22:31.760Z,2.60
2017-10-21T15:23:33.640Z,2.47
2017-10-21T15:24:35.513Z,2.67
2017-10-21T15:25:37.393Z,2.57
2017-10-21T15:26:39.261Z,2.40
2017-10-21T15:27:41.171Z,2.70
2017-10-21T15:28:43.816Z,2.40
2017-10-21T15:29:45.692Z,2.10
2017-10-21T15:30:48.338Z,3.10
2017-10-21T15:31:50.291Z,2.93
2017-10-21T15:32:52.180Z,2.90
2017-10-21T15:33:54.068Z,3.17
2017-10-21T15:34:55.944Z,3.00
2017-10-21T15:35:57.831Z,3.00
2017-10-21T15:37:00.468Z,3.13
2017-10-21T15:38:02.402Z,2.33
2017-10-21T15:39:04.281Z,2.63
2017-10-21T15:40:06.162Z,2.73
2017-10-21T15:41:08.041Z,2.20
2017-10-21T15:42:09.918Z,2.33
2017-10-21T15:43:11.825Z,2.43
2017-10-21T15:44:13.715Z,2.30
2017-10-21T15:45:15.588Z,2.20
2017-10-21T15:46:17.460Z,1.90
2017-10-21T15:47:19.343Z,2.40
2017-10-21T15:48:21.364Z,2.00
2017-10-21T15:49:23.240Z,2.13
2017-10-21T15:50:25.117Z,2.17
2017-10-21T15:51:27.029Z,2.00
2017-10-21T15:52:28.897Z,1.67
2017-10-21T15:53:30.804Z,1.90
2017-10-21T15:54:33.443Z,1.63
2017-10-21T15:55:35.315Z,2.10
2017-10-21T15:56:37.962Z,2.00
2017-10-21T15:57:39.832Z,1.87
2017-10-21T15:58:42.500Z,1.80
2017-10-21T15:59:45.151Z,2.00
2017-10-21T16:00:47.017Z,2.00
2017-10-21T16:01:48.888Z,2.67
2017-10-21T16:02:51.532Z,2.90
2017-10-21T16:03:53.438Z,2.87
2017-10-21T16:04:55.318Z,3.40
2017-10-21T16:05:57.193Z,2.97
2017-10-21T16:06:59.828Z,3.13
2017-10-21T16:08:01.715Z,3.30
2017-10-21T16:09:04.393Z,2.60
2017-10-21T16:10:07.036Z,2.53
2017-10-21T16:11:08.912Z,4.23
2017-10-21T16:12:11.552Z,4.33
2017-10-21T16:13:13.445Z,4.83
2017-10-21T16:14:15.324Z,3.70
2017-10-21T16:15:17.202Z,2.73
2017-10-21T16:16:19.064Z,2.90
2017-10-21T16:17:20.937Z,3.53
2017-10-21T16:18:23.580Z,3.30
2017-10-21T16:19:25.488Z,2.80
2017-10-21T16:20:27.374Z,2.80
2017-10-21T16:21:29.247Z,3.27
2017-10-21T16:22:31.880Z,3.27
2017-10-21T16:23:33.756Z,3.20
2017-10-21T16:24:36.413Z,3.13
2017-10-21T16:25:38.288Z,2.47
2017-10-21T16:26:40.920Z,2.50
2017-10-21T16:27:42.809Z,2.83
2017-10-21T16:28:45.452Z,2.63
2017-10-21T16:29:47.356Z,2.60
2017-10-21T16:30:49.231Z,3.23
2017-10-21T16:31:51.105Z,2.53
2017-10-21T16:32:52.985Z,2.33
2017-10-21T16:33:55.619Z,2.83
2017-10-21T16:34:57.530Z,2.30
2017-10-21T16:35:59.425Z,2.70
2017-10-21T16:37:02.095Z,2.73
2017-10-21T16:38:03.972Z,2.47
2017-10-21T16:39:05.853Z,2.80
2017-10-21T16:40:07.764Z,2.13
2017-10-21T16:41:10.417Z,2.90
2017-10-21T16:42:12.296Z,2.67
2017-10-21T16:43:14.176Z,2.07
2017-10-21T16:44:16.040Z,2.40
2017-10-21T16:45:17.955Z,2.23
2017-10-21T16:46:19.826Z,2.60
2017-10-21T16:47:21.692Z,2.20
2017-10-21T16:48:23.575Z,2.37
2017-10-21T16:49:25.465Z,2.33
2017-10-21T16:50:27.617Z,2.43
2017-10-21T16:51:29.488Z,2.77
2017-10-21T16:52:31.414Z,2.17
2017-10-21T16:53:33.296Z,2.20
2017-10-21T16:54:35.159Z,2.00
2017-10-21T16:55:37.049Z,2.37
2017-10-21T16:56:39.693Z,2.20
2017-10-21T16:57:41.567Z,2.40
2017-10-21T16:58:44.206Z,2.77
2017-10-21T16:59:46.084Z,2.37
2017-10-21T17:00:48.749Z,2.60
2017-10-21T17:01:51.388Z,2.23
2017-10-21T17:02:53.267Z,2.20
2017-10-21T17:03:55.904Z,2.40
2017-10-21T17:04:57.780Z,2.40
2017-10-21T17:05:59.968Z,2.77
2017-10-21T17:07:01.848Z,2.10
2017-10-21T17:08:03.720Z,2.20
2017-10-21T17:09:05.618Z,2.20
2017-10-21T17:10:07.501Z,2.20
2017-10-21T17:11:09.599Z,2.67
2017-10-21T17:12:11.513Z,2.50
2017-10-21T17:13:13.419Z,3.20
2017-10-21T17:14:16.049Z,2.77
2017-10-21T17:15:17.923Z,3.10
2017-10-21T17:16:20.596Z,2.67
2017-10-21T17:17:23.232Z,2.47
2017-10-21T17:18:25.109Z,2.80
2017-10-21T17:19:27.739Z,1.97
2017-10-21T17:20:29.862Z,2.10
2017-10-21T17:21:31.764Z,2.50
2017-10-21T17:22:33.645Z,2.80
2017-10-21T17:23:36.277Z,2.50
2017-10-21T17:24:38.165Z,4.23
2017-10-21T17:25:40.797Z,6.27
2017-10-21T17:26:42.697Z,5.50
2017-10-21T17:27:44.572Z,5.07
2017-10-21T17:28:46.709Z,6.27
2017-10-21T17:29:48.592Z,3.77
2017-10-21T17:30:50.474Z,3.07
2017-10-21T17:31:52.388Z,3.33
2017-10-21T17:32:54.256Z,3.10
2017-10-21T17:33:56.136Z,3.30
2017-10-21T17:34:58.793Z,2.20
2017-10-21T17:36:00.847Z,2.90
2017-10-21T17:37:02.872Z,2.80
2017-10-21T17:38:04.787Z,2.90
2017-10-21T17:39:06.662Z,2.93
2017-10-21T17:40:08.537Z,2.93
2017-10-21T17:41:10.433Z,2.60
2017-10-21T17:42:12.320Z,2.80
2017-10-21T17:43:14.196Z,2.20
2017-10-21T17:44:16.069Z,2.77
2017-10-21T17:45:18.965Z,3.05
2017-10-21T17:46:20.848Z,2.77
2017-10-21T17:47:22.736Z,3.07
2017-10-21T17:48:25.372Z,3.00
2017-10-21T17:49:27.252Z,2.90
2017-10-21T17:50:29.892Z,2.80
2017-10-21T17:51:31.768Z,2.70
2017-10-21T17:52:33.688Z,2.77
2017-10-21T17:53:35.557Z,3.00
2017-10-21T17:54:37.436Z,2.60
2017-10-21T17:55:40.072Z,2.60
2017-10-21T17:56:41.977Z,3.27
2017-10-21T17:57:43.875Z,2.97
2017-10-21T17:58:45.750Z,3.17
2017-10-21T17:59:48.385Z,2.40
2017-10-21T18:00:50.268Z,2.67
2017-10-21T18:01:52.903Z,3.05
2017-10-21T18:02:54.810Z,3.70
2017-10-21T18:03:56.696Z,2.87
2017-10-21T18:04:58.576Z,3.03
2017-10-21T18:06:00.456Z,3.27
2017-10-21T18:07:02.620Z,3.13
2017-10-21T18:08:04.516Z,3.10
2017-10-21T18:09:06.389Z,3.60
2017-10-21T18:10:08.268Z,3.07
2017-10-21T18:11:10.144Z,3.30
2017-10-21T18:12:12.025Z,3.00
2017-10-21T18:13:13.933Z,3.27
2017-10-21T18:14:15.817Z,2.80
2017-10-21T18:15:17.680Z,3.00
2017-10-21T18:16:19.564Z,3.10
2017-10-21T18:17:21.444Z,3.20
2017-10-21T18:18:23.379Z,3.23
2017-10-21T18:19:25.256Z,3.53
2017-10-21T18:20:27.128Z,3.07
2017-10-21T18:21:29.014Z,3.20
2017-10-21T18:22:31.683Z,2.97
2017-10-21T18:23:34.356Z,3.47
2017-10-21T18:24:36.228Z,3.10
2017-10-21T18:25:38.104Z,3.13
2017-10-21T18:26:39.981Z,3.60
2017-10-21T18:27:41.880Z,3.30
2017-10-21T18:28:43.765Z,3.37
2017-10-21T18:29:45.644Z,3.17
2017-10-21T18:30:48.284Z,3.47
2017-10-21T18:31:50.159Z,3.33
2017-10-21T18:32:52.814Z,3.40
2017-10-21T18:33:54.719Z,3.87
2017-10-21T18:34:56.584Z,3.40
2017-10-21T18:35:58.461Z,3.17
2017-10-21T18:37:00.397Z,3.63
2017-10-21T18:38:02.277Z,3.43
2017-10-21T18:39:04.927Z,3.40
2017-10-21T18:40:06.804Z,3.00
2017-10-21T18:41:09.448Z,3.63
2017-10-21T18:42:11.324Z,3.30
2017-10-21T18:43:13.965Z,3.17
2017-10-21T18:44:15.872Z,4.10
2017-10-21T18:45:17.745Z,3.10
2017-10-21T18:46:19.624Z,3.30
2017-10-21T18:47:21.498Z,3.40
2017-10-21T18:48:24.136Z,3.63
2017-10-21T18:49:26.048Z,3.10
2017-10-21T18:50:27.934Z,4.05
2017-10-21T18:51:29.809Z,3.17
2017-10-21T18:52:31.998Z,3.70
2017-10-21T18:53:33.892Z,3.60
2017-10-21T18:54:35.800Z,3.87
2017-10-21T18:55:37.672Z,3.43
2017-10-21T18:56:39.544Z,3.17
2017-10-21T18:57:41.415Z,3.57
2017-10-21T18:58:44.061Z,3.57
2017-10-21T18:59:45.974Z,5.90
2017-10-21T19:00:47.865Z,5.10
2017-10-21T19:01:49.736Z,6.07
2017-10-21T19:02:51.617Z,8.00
2017-10-21T19:03:53.486Z,5.60
2017-10-21T19:04:55.393Z,5.30
2017-10-21T19:05:57.277Z,3.80
2017-10-21T19:06:59.156Z,4.07
2017-10-21T19:08:01.032Z,3.43
2017-10-21T19:09:02.897Z,3.70
2017-10-21T19:10:05.556Z,4.00
2017-10-21T19:11:07.431Z,4.10
2017-10-21T19:12:09.311Z,3.43
2017-10-21T19:13:11.184Z,3.40
2017-10-21T19:14:13.824Z,3.80
2017-10-21T19:15:15.733Z,3.10
2017-10-21T19:16:18.376Z,3.63
2017-10-21T19:17:20.492Z,3.40
2017-10-21T19:18:22.368Z,3.30
2017-10-21T19:19:24.246Z,3.40
2017-10-21T19:20:26.127Z,3.33
2017-10-21T19:21:28.001Z,3.57
2017-10-21T19:22:29.872Z,3.63
2017-10-21T19:23:31.751Z,3.50
2017-10-21T19:24:33.624Z,3.30
2017-10-21T19:25:36.301Z,3.67
2017-10-21T19:26:38.166Z,3.27
2017-10-21T19:27:40.037Z,3.10
2017-10-21T19:28:41.912Z,3.60
2017-10-21T19:29:43.780Z,4.50
2017-10-21T19:30:46.533Z,3.00
2017-10-21T19:31:48.404Z,3.40
2017-10-21T19:32:51.057Z,3.90
2017-10-21T19:33:52.932Z,4.77
2017-10-21T19:34:55.576Z,3.90
2017-10-21T19:35:57.508Z,3.37
2017-10-21T19:36:59.383Z,3.63
2017-10-21T19:38:01.265Z,4.07
2017-10-21T19:39:03.141Z,3.47
2017-10-21T19:40:05.020Z,3.70
2017-10-21T19:41:06.924Z,3.47
2017-10-21T19:42:08.800Z,4.00
2017-10-21T19:43:10.689Z,3.03
2017-10-21T19:44:12.561Z,3.80
2017-10-21T19:45:14.445Z,3.40
2017-10-21T19:46:16.360Z,3.67
2017-10-21T19:47:18.235Z,4.10
2017-10-21T19:48:20.110Z,4.10
2017-10-21T19:49:21.979Z,3.87
2017-10-21T19:50:23.847Z,3.33
2017-10-21T19:51:26.527Z,3.30
2017-10-21T19:52:29.173Z,3.53
2017-10-21T19:53:31.148Z,3.77
2017-10-21T19:54:33.024Z,3.63
2017-10-21T19:55:35.038Z,3.27
2017-10-21T19:56:37.024Z,3.60
2017-10-21T19:57:38.898Z,3.50
2017-10-21T19:58:40.773Z,3.73
2017-10-21T19:59:42.654Z,3.70
2017-10-21T20:00:46.144Z,3.60
2017-10-21T20:01:48.085Z,3.47
2017-10-21T20:02:50.721Z,3.70
2017-10-21T20:03:53.073Z,4.00
2017-10-21T20:04:54.947Z,3.63
2017-10-21T20:05:56.826Z,4.13
2017-10-21T20:06:59.724Z,3.67
2017-10-21T20:08:01.591Z,4.53
2017-10-21T20:09:03.465Z,3.87
2017-10-21T20:10:05.705Z,3.70
2017-10-21T20:11:07.586Z,4.00
2017-10-21T20:12:09.480Z,3.33
2017-10-21T20:13:11.360Z,3.73
2017-10-21T20:14:13.232Z,3.33
2017-10-21T20:15:15.111Z,3.60
2017-10-21T20:16:17.753Z,3.33
2017-10-21T20:17:19.666Z,3.47
2017-10-21T20:18:21.537Z,3.03
2017-10-21T20:19:23.417Z,3.50
2017-10-21T20:20:25.284Z,3.60
2017-10-21T20:21:27.925Z,3.57
2017-10-21T20:22:29.819Z,3.43
2017-10-21T20:23:31.696Z,3.63
2017-10-21T20:24:33.568Z,3.70
2017-10-21T20:25:35.457Z,3.80
2017-10-21T20:26:38.099Z,3.43
2017-10-21T20:27:40.035Z,3.30
2017-10-21T20:28:41.926Z,3.50
2017-10-21T20:29:44.565Z,4.00
2017-10-21T20:30:46.472Z,3.90
2017-10-21T20:31:48.349Z,3.93
2017-10-21T20:32:50.567Z,3.77
2017-10-21T20:33:52.448Z,4.47
2017-10-21T20:34:54.329Z,3.70
2017-10-21T20:35:56.991Z,4.70
2017-10-21T20:36:58.908Z,3.90
2017-10-21T20:38:00.811Z,3.77
2017-10-21T20:39:03.456Z,4.00
2017-10-21T20:40:05.333Z,3.83
2017-10-21T20:41:07.982Z,3.90
2017-10-21T20:42:09.877Z,3.30
2017-10-21T20:43:11.789Z,4.65
2017-10-21T20:44:13.662Z,3.90
2017-10-21T20:45:16.300Z,3.73
2017-10-21T20:46:18.813Z,3.20
2017-10-21T20:47:20.828Z,4.20
2017-10-21T20:48:22.733Z,4.37
2017-10-21T20:49:24.624Z,4.40
2017-10-21T20:50:26.497Z,4.30
2017-10-21T20:51:29.146Z,3.63
2017-10-21T20:52:31.044Z,4.33
2017-10-21T20:53:32.944Z,3.67
2017-10-21T20:54:34.820Z,3.73
2017-10-21T20:55:37.467Z,3.23
2017-10-21T20:56:39.368Z,3.50
2017-10-21T20:57:41.235Z,3.90
2017-10-21T20:58:43.115Z,4.00
2017-10-21T20:59:45.398Z,4.00
2017-10-21T21:00:47.320Z,4.00
2017-10-21T21:01:49.197Z,3.73
2017-10-21T21:02:51.836Z,3.37
2017-10-21T21:03:53.728Z,3.33
2017-10-21T21:04:56.360Z,3.70
2017-10-21T21:05:58.236Z,3.50
2017-10-21T21:07:00.881Z,4.13
2017-10-21T21:08:02.752Z,3.35
2017-10-21T21:09:05.420Z,4.10
2017-10-21T21:10:08.065Z,3.53
2017-10-21T21:11:09.949Z,3.50
2017-10-21T21:12:12.592Z,4.37
